sensor_id;sensor_type;location;lat;lon;timestamp;P1;durP1;ratioP1;P2;durP2;ratioP2
71777;SDS011;59609;52.430;4.668;2024-02-16T00:02:15;4.85;;;2.92;;
71777;SDS011;59609;52.430;4.668;2024-02-16T00:04:40;4.55;;;3.13;;
71777;SDS011;59609;52.430;4.668;2024-02-16T00:07:05;6.00;;;3.10;;
71777;SDS011;59609;52.430;4.668;2024-02-16T00:09:31;10.03;;;3.20;;
71777;SDS011;59609;52.430;4.668;2024-02-16T00:11:56;6.17;;;2.90;;
71777;SDS011;59609;52.430;4.668;2024-02-16T00:14:21;4.53;;;3.00;;
71777;SDS011;59609;52.430;4.668;2024-02-16T00:16:47;6.70;;;3.13;;
71777;SDS011;59609;52.430;4.668;2024-02-16T00:19:12;4.85;;;3.00;;
71777;SDS011;59609;52.430;4.668;2024-02-16T00:21:37;6.50;;;3.33;;
71777;SDS011;59609;52.430;4.668;2024-02-16T00:24:06;5.40;;;3.17;;
71777;SDS011;59609;52.430;4.668;2024-02-16T00:26:32;6.30;;;3.13;;
71777;SDS011;59609;52.430;4.668;2024-02-16T00:29:03;5.20;;;3.10;;
71777;SDS011;59609;52.430;4.668;2024-02-16T00:31:29;4.82;;;3.20;;
71777;SDS011;59609;52.430;4.668;2024-02-16T00:33:55;6.47;;;3.00;;
71777;SDS011;59609;52.430;4.668;2024-02-16T00:36:20;4.33;;;3.13;;
71777;SDS011;59609;52.430;4.668;2024-02-16T00:38:45;5.30;;;3.10;;
71777;SDS011;59609;52.430;4.668;2024-02-16T00:41:21;5.10;;;3.35;;
71777;SDS011;59609;52.430;4.668;2024-02-16T00:43:47;4.57;;;3.10;;
71777;SDS011;59609;52.430;4.668;2024-02-16T00:46:12;4.00;;;3.15;;
71777;SDS011;59609;52.430;4.668;2024-02-16T00:48:37;6.13;;;3.07;;
71777;SDS011;59609;52.430;4.668;2024-02-16T00:51:02;3.87;;;3.10;;
71777;SDS011;59609;52.430;4.668;2024-02-16T00:53:28;5.28;;;3.35;;
71777;SDS011;59609;52.430;4.668;2024-02-16T00:55:53;4.50;;;3.10;;
71777;SDS011;59609;52.430;4.668;2024-02-16T00:58:19;5.17;;;3.07;;
71777;SDS011;59609;52.430;4.668;2024-02-16T01:00:44;6.32;;;3.17;;
71777;SDS011;59609;52.430;4.668;2024-02-16T01:03:10;4.85;;;3.28;;
71777;SDS011;59609;52.430;4.668;2024-02-16T01:05:35;5.30;;;3.43;;
71777;SDS011;59609;52.430;4.668;2024-02-16T01:08:00;5.70;;;2.95;;
71777;SDS011;59609;52.430;4.668;2024-02-16T01:10:26;7.03;;;3.38;;
71777;SDS011;59609;52.430;4.668;2024-02-16T01:12:51;7.60;;;3.80;;
71777;SDS011;59609;52.430;4.668;2024-02-16T01:15:17;3.95;;;3.30;;
71777;SDS011;59609;52.430;4.668;2024-02-16T01:17:43;6.05;;;3.50;;
71777;SDS011;59609;52.430;4.668;2024-02-16T01:20:08;5.77;;;3.70;;
71777;SDS011;59609;52.430;4.668;2024-02-16T01:22:37;8.10;;;4.40;;
71777;SDS011;59609;52.430;4.668;2024-02-16T01:25:02;3.70;;;2.93;;
71777;SDS011;59609;52.430;4.668;2024-02-16T01:27:28;4.72;;;3.15;;
71777;SDS011;59609;52.430;4.668;2024-02-16T01:29:53;4.53;;;3.17;;
71777;SDS011;59609;52.430;4.668;2024-02-16T01:32:18;6.90;;;3.30;;
71777;SDS011;59609;52.430;4.668;2024-02-16T01:34:43;5.00;;;3.43;;
71777;SDS011;59609;52.430;4.668;2024-02-16T01:37:11;4.20;;;2.97;;
71777;SDS011;59609;52.430;4.668;2024-02-16T01:39:37;8.32;;;3.65;;
71777;SDS011;59609;52.430;4.668;2024-02-16T01:42:02;4.60;;;3.10;;
71777;SDS011;59609;52.430;4.668;2024-02-16T01:44:27;11.90;;;3.23;;
71777;SDS011;59609;52.430;4.668;2024-02-16T01:46:52;8.27;;;4.07;;
71777;SDS011;59609;52.430;4.668;2024-02-16T01:49:18;6.07;;;3.13;;
71777;SDS011;59609;52.430;4.668;2024-02-16T01:51:43;4.05;;;2.83;;
71777;SDS011;59609;52.430;4.668;2024-02-16T01:54:10;5.55;;;3.20;;
71777;SDS011;59609;52.430;4.668;2024-02-16T01:56:35;4.40;;;2.80;;
71777;SDS011;59609;52.430;4.668;2024-02-16T01:59:01;5.57;;;2.97;;
71777;SDS011;59609;52.430;4.668;2024-02-16T02:01:26;6.43;;;2.87;;
71777;SDS011;59609;52.430;4.668;2024-02-16T02:03:51;5.67;;;3.17;;
71777;SDS011;59609;52.430;4.668;2024-02-16T02:06:16;4.57;;;3.40;;
71777;SDS011;59609;52.430;4.668;2024-02-16T02:08:42;6.50;;;3.00;;
71777;SDS011;59609;52.430;4.668;2024-02-16T02:11:07;4.13;;;2.83;;
71777;SDS011;59609;52.430;4.668;2024-02-16T02:13:32;4.40;;;2.87;;
71777;SDS011;59609;52.430;4.668;2024-02-16T02:15:57;3.93;;;2.70;;
71777;SDS011;59609;52.430;4.668;2024-02-16T02:18:23;6.47;;;3.10;;
71777;SDS011;59609;52.430;4.668;2024-02-16T02:20:48;7.13;;;3.03;;
71777;SDS011;59609;52.430;4.668;2024-02-16T02:23:14;6.82;;;3.55;;
71777;SDS011;59609;52.430;4.668;2024-02-16T02:25:39;6.00;;;3.00;;
71777;SDS011;59609;52.430;4.668;2024-02-16T02:28:05;3.30;;;2.58;;
71777;SDS011;59609;52.430;4.668;2024-02-16T02:30:31;5.50;;;2.95;;
71777;SDS011;59609;52.430;4.668;2024-02-16T02:32:56;7.80;;;3.55;;
71777;SDS011;59609;52.430;4.668;2024-02-16T02:35:21;5.10;;;3.03;;
71777;SDS011;59609;52.430;4.668;2024-02-16T02:37:47;4.80;;;3.17;;
71777;SDS011;59609;52.430;4.668;2024-02-16T02:40:13;4.28;;;2.80;;
71777;SDS011;59609;52.430;4.668;2024-02-16T02:42:38;10.48;;;2.92;;
71777;SDS011;59609;52.430;4.668;2024-02-16T02:45:03;5.30;;;3.17;;
71777;SDS011;59609;52.430;4.668;2024-02-16T02:47:29;5.25;;;3.20;;
71777;SDS011;59609;52.430;4.668;2024-02-16T02:49:54;12.27;;;3.40;;
71777;SDS011;59609;52.430;4.668;2024-02-16T02:52:20;4.40;;;3.40;;
71777;SDS011;59609;52.430;4.668;2024-02-16T02:54:45;5.93;;;2.92;;
71777;SDS011;59609;52.430;4.668;2024-02-16T02:57:11;5.45;;;3.10;;
71777;SDS011;59609;52.430;4.668;2024-02-16T02:59:36;4.20;;;2.73;;
71777;SDS011;59609;52.430;4.668;2024-02-16T03:02:01;3.57;;;2.80;;
71777;SDS011;59609;52.430;4.668;2024-02-16T03:04:27;6.00;;;3.10;;
71777;SDS011;59609;52.430;4.668;2024-02-16T03:06:52;7.37;;;4.33;;
71777;SDS011;59609;52.430;4.668;2024-02-16T03:09:17;7.05;;;3.28;;
71777;SDS011;59609;52.430;4.668;2024-02-16T03:11:43;6.93;;;3.50;;
71777;SDS011;59609;52.430;4.668;2024-02-16T03:14:08;5.33;;;3.53;;
71777;SDS011;59609;52.430;4.668;2024-02-16T03:16:33;7.17;;;3.40;;
71777;SDS011;59609;52.430;4.668;2024-02-16T03:18:59;4.95;;;3.25;;
71777;SDS011;59609;52.430;4.668;2024-02-16T03:21:24;4.43;;;3.30;;
71777;SDS011;59609;52.430;4.668;2024-02-16T03:23:50;6.67;;;3.17;;
71777;SDS011;59609;52.430;4.668;2024-02-16T03:26:15;6.60;;;3.22;;
71777;SDS011;59609;52.430;4.668;2024-02-16T03:28:42;8.30;;;3.22;;
71777;SDS011;59609;52.430;4.668;2024-02-16T03:31:14;4.55;;;3.22;;
71777;SDS011;59609;52.430;4.668;2024-02-16T03:33:39;5.43;;;3.03;;
71777;SDS011;59609;52.430;4.668;2024-02-16T03:36:05;4.78;;;3.10;;
71777;SDS011;59609;52.430;4.668;2024-02-16T03:38:30;4.63;;;3.28;;
71777;SDS011;59609;52.430;4.668;2024-02-16T03:40:55;5.50;;;3.83;;
71777;SDS011;59609;52.430;4.668;2024-02-16T03:43:21;6.65;;;3.25;;
71777;SDS011;59609;52.430;4.668;2024-02-16T03:45:46;5.97;;;3.10;;
71777;SDS011;59609;52.430;4.668;2024-02-16T03:48:11;6.13;;;3.10;;
71777;SDS011;59609;52.430;4.668;2024-02-16T03:50:36;7.07;;;3.30;;
71777;SDS011;59609;52.430;4.668;2024-02-16T03:53:02;5.37;;;3.10;;
71777;SDS011;59609;52.430;4.668;2024-02-16T03:55:27;6.50;;;3.05;;
71777;SDS011;59609;52.430;4.668;2024-02-16T03:57:53;4.82;;;2.83;;
71777;SDS011;59609;52.430;4.668;2024-02-16T04:00:18;4.63;;;3.43;;
71777;SDS011;59609;52.430;4.668;2024-02-16T04:02:45;5.38;;;3.10;;
71777;SDS011;59609;52.430;4.668;2024-02-16T04:05:10;6.20;;;3.08;;
71777;SDS011;59609;52.430;4.668;2024-02-16T04:07:36;5.63;;;3.23;;
71777;SDS011;59609;52.430;4.668;2024-02-16T04:10:01;6.83;;;3.70;;
71777;SDS011;59609;52.430;4.668;2024-02-16T04:12:26;5.32;;;3.33;;
71777;SDS011;59609;52.430;4.668;2024-02-16T04:14:51;7.10;;;3.33;;
71777;SDS011;59609;52.430;4.668;2024-02-16T04:17:17;4.40;;;3.17;;
71777;SDS011;59609;52.430;4.668;2024-02-16T04:19:42;4.13;;;3.13;;
71777;SDS011;59609;52.430;4.668;2024-02-16T04:22:07;5.33;;;3.30;;
71777;SDS011;59609;52.430;4.668;2024-02-16T04:24:32;5.87;;;3.10;;
71777;SDS011;59609;52.430;4.668;2024-02-16T04:26:58;5.47;;;3.03;;
71777;SDS011;59609;52.430;4.668;2024-02-16T04:29:23;7.63;;;3.40;;
71777;SDS011;59609;52.430;4.668;2024-02-16T04:31:48;3.10;;;2.57;;
71777;SDS011;59609;52.430;4.668;2024-02-16T04:34:13;4.60;;;2.67;;
71777;SDS011;59609;52.430;4.668;2024-02-16T04:36:39;4.95;;;3.22;;
71777;SDS011;59609;52.430;4.668;2024-02-16T04:39:04;4.23;;;3.20;;
71777;SDS011;59609;52.430;4.668;2024-02-16T04:41:29;4.38;;;3.38;;
71777;SDS011;59609;52.430;4.668;2024-02-16T04:43:55;5.07;;;3.03;;
71777;SDS011;59609;52.430;4.668;2024-02-16T04:46:20;3.97;;;3.10;;
71777;SDS011;59609;52.430;4.668;2024-02-16T04:48:46;6.50;;;3.72;;
71777;SDS011;59609;52.430;4.668;2024-02-16T04:51:11;6.33;;;3.27;;
71777;SDS011;59609;52.430;4.668;2024-02-16T04:53:36;4.57;;;3.03;;
71777;SDS011;59609;52.430;4.668;2024-02-16T04:56:02;5.80;;;3.17;;
71777;SDS011;59609;52.430;4.668;2024-02-16T04:58:27;6.17;;;3.17;;
71777;SDS011;59609;52.430;4.668;2024-02-16T05:00:52;8.60;;;3.33;;
71777;SDS011;59609;52.430;4.668;2024-02-16T05:03:18;5.87;;;3.23;;
71777;SDS011;59609;52.430;4.668;2024-02-16T05:05:43;6.53;;;2.67;;
71777;SDS011;59609;52.430;4.668;2024-02-16T05:08:09;7.88;;;3.55;;
71777;SDS011;59609;52.430;4.668;2024-02-16T05:10:34;4.78;;;3.20;;
71777;SDS011;59609;52.430;4.668;2024-02-16T05:12:59;6.70;;;4.57;;
71777;SDS011;59609;52.430;4.668;2024-02-16T05:15:24;4.17;;;2.93;;
71777;SDS011;59609;52.430;4.668;2024-02-16T05:17:49;5.10;;;3.17;;
71777;SDS011;59609;52.430;4.668;2024-02-16T05:20:16;4.72;;;2.85;;
71777;SDS011;59609;52.430;4.668;2024-02-16T05:22:41;4.83;;;3.13;;
71777;SDS011;59609;52.430;4.668;2024-02-16T05:25:08;6.10;;;3.30;;
71777;SDS011;59609;52.430;4.668;2024-02-16T05:27:33;4.10;;;3.17;;
71777;SDS011;59609;52.430;4.668;2024-02-16T05:29:59;5.22;;;2.80;;
71777;SDS011;59609;52.430;4.668;2024-02-16T05:32:25;6.03;;;3.30;;
71777;SDS011;59609;52.430;4.668;2024-02-16T05:34:50;8.23;;;3.00;;
71777;SDS011;59609;52.430;4.668;2024-02-16T05:37:15;8.20;;;3.70;;
71777;SDS011;59609;52.430;4.668;2024-02-16T05:39:40;5.00;;;3.13;;
71777;SDS011;59609;52.430;4.668;2024-02-16T05:42:19;4.82;;;3.33;;
71777;SDS011;59609;52.430;4.668;2024-02-16T05:44:44;7.82;;;3.17;;
71777;SDS011;59609;52.430;4.668;2024-02-16T05:47:10;12.30;;;3.83;;
71777;SDS011;59609;52.430;4.668;2024-02-16T05:49:35;6.97;;;3.67;;
71777;SDS011;59609;52.430;4.668;2024-02-16T05:52:00;5.53;;;3.20;;
71777;SDS011;59609;52.430;4.668;2024-02-16T05:54:44;6.03;;;3.17;;
71777;SDS011;59609;52.430;4.668;2024-02-16T05:57:10;6.85;;;3.55;;
71777;SDS011;59609;52.430;4.668;2024-02-16T05:59:35;5.10;;;3.20;;
71777;SDS011;59609;52.430;4.668;2024-02-16T06:02:01;6.75;;;3.40;;
71777;SDS011;59609;52.430;4.668;2024-02-16T06:04:26;5.97;;;3.40;;
71777;SDS011;59609;52.430;4.668;2024-02-16T06:06:51;6.30;;;3.33;;
71777;SDS011;59609;52.430;4.668;2024-02-16T06:09:18;5.35;;;3.30;;
71777;SDS011;59609;52.430;4.668;2024-02-16T06:11:44;6.80;;;3.60;;
71777;SDS011;59609;52.430;4.668;2024-02-16T06:14:09;6.82;;;3.67;;
71777;SDS011;59609;52.430;4.668;2024-02-16T06:16:34;5.07;;;3.37;;
71777;SDS011;59609;52.430;4.668;2024-02-16T06:18:59;8.40;;;3.53;;
71777;SDS011;59609;52.430;4.668;2024-02-16T06:21:25;5.43;;;3.53;;
71777;SDS011;59609;52.430;4.668;2024-02-16T06:23:50;6.80;;;3.30;;
71777;SDS011;59609;52.430;4.668;2024-02-16T06:26:15;7.40;;;3.50;;
71777;SDS011;59609;52.430;4.668;2024-02-16T06:28:40;6.93;;;3.77;;
71777;SDS011;59609;52.430;4.668;2024-02-16T06:31:05;5.60;;;3.93;;
71777;SDS011;59609;52.430;4.668;2024-02-16T06:33:31;8.07;;;3.50;;
71777;SDS011;59609;52.430;4.668;2024-02-16T06:35:56;6.03;;;3.50;;
71777;SDS011;59609;52.430;4.668;2024-02-16T06:38:21;4.37;;;3.60;;
71777;SDS011;59609;52.430;4.668;2024-02-16T06:40:47;7.83;;;3.63;;
71777;SDS011;59609;52.430;4.668;2024-02-16T06:43:12;4.77;;;3.47;;
71777;SDS011;59609;52.430;4.668;2024-02-16T06:45:37;4.93;;;3.40;;
71777;SDS011;59609;52.430;4.668;2024-02-16T06:48:02;9.10;;;3.60;;
71777;SDS011;59609;52.430;4.668;2024-02-16T06:50:28;6.03;;;3.03;;
71777;SDS011;59609;52.430;4.668;2024-02-16T06:52:53;8.10;;;3.63;;
71777;SDS011;59609;52.430;4.668;2024-02-16T06:55:20;8.10;;;3.95;;
71777;SDS011;59609;52.430;4.668;2024-02-16T06:57:45;6.85;;;3.90;;
71777;SDS011;59609;52.430;4.668;2024-02-16T07:00:11;6.18;;;3.63;;
71777;SDS011;59609;52.430;4.668;2024-02-16T07:02:36;7.85;;;3.63;;
71777;SDS011;59609;52.430;4.668;2024-02-16T07:05:01;7.83;;;3.50;;
71777;SDS011;59609;52.430;4.668;2024-02-16T07:07:27;8.77;;;4.30;;
71777;SDS011;59609;52.430;4.668;2024-02-16T07:09:52;7.23;;;4.10;;
71777;SDS011;59609;52.430;4.668;2024-02-16T07:12:18;6.43;;;3.75;;
71777;SDS011;59609;52.430;4.668;2024-02-16T07:14:44;7.15;;;4.35;;
71777;SDS011;59609;52.430;4.668;2024-02-16T07:17:10;6.85;;;3.50;;
71777;SDS011;59609;52.430;4.668;2024-02-16T07:19:36;6.50;;;4.07;;
71777;SDS011;59609;52.430;4.668;2024-02-16T07:22:02;7.10;;;4.07;;
71777;SDS011;59609;52.430;4.668;2024-02-16T07:24:27;6.17;;;3.90;;
71777;SDS011;59609;52.430;4.668;2024-02-16T07:26:52;7.67;;;4.00;;
71777;SDS011;59609;52.430;4.668;2024-02-16T07:29:18;7.53;;;3.90;;
71777;SDS011;59609;52.430;4.668;2024-02-16T07:31:43;7.30;;;4.00;;
71777;SDS011;59609;52.430;4.668;2024-02-16T07:34:08;8.57;;;4.10;;
71777;SDS011;59609;52.430;4.668;2024-02-16T07:36:36;8.95;;;3.78;;
71777;SDS011;59609;52.430;4.668;2024-02-16T07:39:01;6.00;;;3.60;;
71777;SDS011;59609;52.430;4.668;2024-02-16T07:41:26;7.60;;;4.35;;
71777;SDS011;59609;52.430;4.668;2024-02-16T07:43:53;7.00;;;3.13;;
71777;SDS011;59609;52.430;4.668;2024-02-16T07:46:18;8.07;;;3.70;;
71777;SDS011;59609;52.430;4.668;2024-02-16T07:48:43;6.40;;;3.83;;
71777;SDS011;59609;52.430;4.668;2024-02-16T07:51:08;7.57;;;3.40;;
71777;SDS011;59609;52.430;4.668;2024-02-16T07:53:33;7.80;;;3.53;;
71777;SDS011;59609;52.430;4.668;2024-02-16T07:55:59;7.90;;;3.42;;
71777;SDS011;59609;52.430;4.668;2024-02-16T07:58:24;6.00;;;3.13;;
71777;SDS011;59609;52.430;4.668;2024-02-16T08:00:49;8.10;;;4.00;;
71777;SDS011;59609;52.430;4.668;2024-02-16T08:03:15;9.02;;;4.10;;
71777;SDS011;59609;52.430;4.668;2024-02-16T08:05:41;8.18;;;3.83;;
71777;SDS011;59609;52.430;4.668;2024-02-16T08:08:06;7.87;;;3.10;;
71777;SDS011;59609;52.430;4.668;2024-02-16T08:10:31;7.27;;;3.67;;
71777;SDS011;59609;52.430;4.668;2024-02-16T08:12:56;10.27;;;3.93;;
71777;SDS011;59609;52.430;4.668;2024-02-16T08:15:22;8.23;;;3.43;;
71777;SDS011;59609;52.430;4.668;2024-02-16T08:17:50;7.70;;;3.92;;
71777;SDS011;59609;52.430;4.668;2024-02-16T08:20:16;6.53;;;3.03;;
71777;SDS011;59609;52.430;4.668;2024-02-16T08:22:41;4.63;;;2.73;;
71777;SDS011;59609;52.430;4.668;2024-02-16T08:25:06;6.07;;;3.30;;
71777;SDS011;59609;52.430;4.668;2024-02-16T08:27:32;5.95;;;3.40;;
71777;SDS011;59609;52.430;4.668;2024-02-16T08:29:57;7.00;;;2.90;;
71777;SDS011;59609;52.430;4.668;2024-02-16T08:32:22;5.88;;;3.10;;
71777;SDS011;59609;52.430;4.668;2024-02-16T08:34:48;9.17;;;3.57;;
71777;SDS011;59609;52.430;4.668;2024-02-16T08:37:13;9.63;;;3.38;;
71777;SDS011;59609;52.430;4.668;2024-02-16T08:39:38;11.43;;;4.68;;
71777;SDS011;59609;52.430;4.668;2024-02-16T08:42:04;9.32;;;3.63;;
71777;SDS011;59609;52.430;4.668;2024-02-16T08:44:29;7.10;;;3.60;;
71777;SDS011;59609;52.430;4.668;2024-02-16T08:46:54;6.60;;;3.60;;
71777;SDS011;59609;52.430;4.668;2024-02-16T08:49:20;9.00;;;3.80;;
71777;SDS011;59609;52.430;4.668;2024-02-16T08:51:46;7.70;;;3.90;;
71777;SDS011;59609;52.430;4.668;2024-02-16T08:54:12;10.48;;;4.10;;
71777;SDS011;59609;52.430;4.668;2024-02-16T08:56:37;11.50;;;3.93;;
71777;SDS011;59609;52.430;4.668;2024-02-16T08:59:04;9.38;;;3.60;;
71777;SDS011;59609;52.430;4.668;2024-02-16T09:01:30;7.97;;;3.95;;
71777;SDS011;59609;52.430;4.668;2024-02-16T09:03:55;11.27;;;4.38;;
71777;SDS011;59609;52.430;4.668;2024-02-16T09:06:21;9.53;;;3.80;;
71777;SDS011;59609;52.430;4.668;2024-02-16T09:08:46;12.48;;;4.75;;
71777;SDS011;59609;52.430;4.668;2024-02-16T09:11:11;7.70;;;4.30;;
71777;SDS011;59609;52.430;4.668;2024-02-16T09:13:39;8.63;;;4.23;;
71777;SDS011;59609;52.430;4.668;2024-02-16T09:16:04;11.88;;;4.70;;
71777;SDS011;59609;52.430;4.668;2024-02-16T09:18:30;8.85;;;5.30;;
71777;SDS011;59609;52.430;4.668;2024-02-16T09:20:55;19.77;;;4.68;;
71777;SDS011;59609;52.430;4.668;2024-02-16T09:23:20;12.68;;;5.15;;
71777;SDS011;59609;52.430;4.668;2024-02-16T09:25:46;18.73;;;5.70;;
71777;SDS011;59609;52.430;4.668;2024-02-16T09:28:11;17.30;;;5.63;;
71777;SDS011;59609;52.430;4.668;2024-02-16T09:30:37;15.85;;;5.68;;
71777;SDS011;59609;52.430;4.668;2024-02-16T09:33:02;12.80;;;5.88;;
71777;SDS011;59609;52.430;4.668;2024-02-16T09:35:27;16.55;;;5.72;;
71777;SDS011;59609;52.430;4.668;2024-02-16T09:37:53;19.13;;;6.27;;
71777;SDS011;59609;52.430;4.668;2024-02-16T09:40:18;27.37;;;6.63;;
71777;SDS011;59609;52.430;4.668;2024-02-16T09:42:48;20.45;;;6.15;;
71777;SDS011;59609;52.430;4.668;2024-02-16T09:45:14;18.50;;;6.22;;
71777;SDS011;59609;52.430;4.668;2024-02-16T09:47:41;19.75;;;6.03;;
71777;SDS011;59609;52.430;4.668;2024-02-16T09:50:07;18.00;;;6.15;;
71777;SDS011;59609;52.430;4.668;2024-02-16T09:52:32;15.20;;;6.10;;
71777;SDS011;59609;52.430;4.668;2024-02-16T09:54:59;15.95;;;5.22;;
71777;SDS011;59609;52.430;4.668;2024-02-16T09:57:24;18.13;;;5.77;;
71777;SDS011;59609;52.430;4.668;2024-02-16T09:59:49;15.43;;;5.30;;
71777;SDS011;59609;52.430;4.668;2024-02-16T10:02:14;14.77;;;5.67;;
71777;SDS011;59609;52.430;4.668;2024-02-16T10:04:39;15.20;;;6.07;;
71777;SDS011;59609;52.430;4.668;2024-02-16T10:07:05;10.13;;;5.10;;
71777;SDS011;59609;52.430;4.668;2024-02-16T10:09:31;13.57;;;6.20;;
71777;SDS011;59609;52.430;4.668;2024-02-16T10:11:57;14.77;;;5.65;;
71777;SDS011;59609;52.430;4.668;2024-02-16T10:14:22;12.73;;;5.13;;
71777;SDS011;59609;52.430;4.668;2024-02-16T10:16:59;9.70;;;4.72;;
71777;SDS011;59609;52.430;4.668;2024-02-16T10:19:24;11.95;;;5.10;;
71777;SDS011;59609;52.430;4.668;2024-02-16T10:21:50;13.37;;;4.53;;
71777;SDS011;59609;52.430;4.668;2024-02-16T10:24:15;8.83;;;3.93;;
71777;SDS011;59609;52.430;4.668;2024-02-16T10:26:46;9.57;;;4.43;;
71777;SDS011;59609;52.430;4.668;2024-02-16T10:29:11;10.67;;;4.23;;
71777;SDS011;59609;52.430;4.668;2024-02-16T10:31:38;8.05;;;4.13;;
71777;SDS011;59609;52.430;4.668;2024-02-16T10:34:04;9.13;;;4.22;;
71777;SDS011;59609;52.430;4.668;2024-02-16T10:36:37;9.75;;;4.40;;
71777;SDS011;59609;52.430;4.668;2024-02-16T10:39:03;10.35;;;4.20;;
71777;SDS011;59609;52.430;4.668;2024-02-16T10:41:37;11.88;;;4.32;;
71777;SDS011;59609;52.430;4.668;2024-02-16T10:44:03;8.25;;;4.47;;
71777;SDS011;59609;52.430;4.668;2024-02-16T10:46:30;6.45;;;4.20;;
71777;SDS011;59609;52.430;4.668;2024-02-16T10:48:55;14.82;;;4.70;;
71777;SDS011;59609;52.430;4.668;2024-02-16T10:51:26;13.63;;;4.25;;
71777;SDS011;59609;52.430;4.668;2024-02-16T10:53:53;10.15;;;4.70;;
71777;SDS011;59609;52.430;4.668;2024-02-16T10:56:32;14.10;;;4.80;;
71777;SDS011;59609;52.430;4.668;2024-02-16T10:58:59;10.77;;;4.85;;
71777;SDS011;59609;52.430;4.668;2024-02-16T11:01:25;7.90;;;3.95;;
71777;SDS011;59609;52.430;4.668;2024-02-16T11:03:50;9.27;;;3.80;;
71777;SDS011;59609;52.430;4.668;2024-02-16T11:06:25;8.65;;;3.88;;
71777;SDS011;59609;52.430;4.668;2024-02-16T11:08:50;10.00;;;3.67;;
71777;SDS011;59609;52.430;4.668;2024-02-16T11:11:22;8.37;;;3.13;;
71777;SDS011;59609;52.430;4.668;2024-02-16T11:13:47;6.93;;;3.70;;
71777;SDS011;59609;52.430;4.668;2024-02-16T11:16:13;6.50;;;3.30;;
71777;SDS011;59609;52.430;4.668;2024-02-16T11:18:39;5.43;;;3.70;;
71777;SDS011;59609;52.430;4.668;2024-02-16T11:21:05;8.50;;;3.60;;
71777;SDS011;59609;52.430;4.668;2024-02-16T11:23:32;9.82;;;3.15;;
71777;SDS011;59609;52.430;4.668;2024-02-16T11:26:02;8.55;;;3.10;;
71777;SDS011;59609;52.430;4.668;2024-02-16T11:28:28;11.20;;;4.40;;
71777;SDS011;59609;52.430;4.668;2024-02-16T11:30:55;7.38;;;3.70;;
71777;SDS011;59609;52.430;4.668;2024-02-16T11:33:21;5.63;;;3.20;;
71777;SDS011;59609;52.430;4.668;2024-02-16T11:35:59;7.90;;;3.55;;
71777;SDS011;59609;52.430;4.668;2024-02-16T11:38:25;9.15;;;3.53;;
71777;SDS011;59609;52.430;4.668;2024-02-16T11:40:57;8.75;;;3.00;;
71777;SDS011;59609;52.430;4.668;2024-02-16T11:43:22;9.07;;;3.60;;
71777;SDS011;59609;52.430;4.668;2024-02-16T11:45:48;8.45;;;3.47;;
71777;SDS011;59609;52.430;4.668;2024-02-16T11:48:18;13.13;;;3.42;;
71777;SDS011;59609;52.430;4.668;2024-02-16T11:50:43;8.63;;;2.83;;
71777;SDS011;59609;52.430;4.668;2024-02-16T11:53:09;10.97;;;3.37;;
71777;SDS011;59609;52.430;4.668;2024-02-16T11:55:34;10.30;;;4.45;;
71777;SDS011;59609;52.430;4.668;2024-02-16T11:58:00;10.70;;;3.05;;
71777;SDS011;59609;52.430;4.668;2024-02-16T12:00:25;9.80;;;3.00;;
71777;SDS011;59609;52.430;4.668;2024-02-16T12:02:58;14.43;;;3.20;;
71777;SDS011;59609;52.430;4.668;2024-02-16T12:05:23;10.48;;;2.90;;
71777;SDS011;59609;52.430;4.668;2024-02-16T12:07:49;13.43;;;3.80;;
71777;SDS011;59609;52.430;4.668;2024-02-16T12:10:14;9.95;;;2.88;;
71777;SDS011;59609;52.430;4.668;2024-02-16T12:12:39;12.48;;;2.63;;
71777;SDS011;59609;52.430;4.668;2024-02-16T12:15:07;9.73;;;3.08;;
71777;SDS011;59609;52.430;4.668;2024-02-16T12:17:32;8.23;;;2.88;;
71777;SDS011;59609;52.430;4.668;2024-02-16T12:19:58;9.30;;;2.50;;
71777;SDS011;59609;52.430;4.668;2024-02-16T12:22:23;12.33;;;3.13;;
71777;SDS011;59609;52.430;4.668;2024-02-16T12:24:49;14.20;;;3.25;;
71777;SDS011;59609;52.430;4.668;2024-02-16T12:27:17;8.23;;;3.10;;
71777;SDS011;59609;52.430;4.668;2024-02-16T12:29:43;11.75;;;3.58;;
71777;SDS011;59609;52.430;4.668;2024-02-16T12:32:08;9.32;;;3.13;;
71777;SDS011;59609;52.430;4.668;2024-02-16T12:37:07;9.50;;;3.30;;
71777;SDS011;59609;52.430;4.668;2024-02-16T12:39:33;6.70;;;3.35;;
71777;SDS011;59609;52.430;4.668;2024-02-16T12:41:58;8.77;;;2.95;;
71777;SDS011;59609;52.430;4.668;2024-02-16T12:44:23;13.27;;;3.43;;
71777;SDS011;59609;52.430;4.668;2024-02-16T12:46:49;7.87;;;3.00;;
71777;SDS011;59609;52.430;4.668;2024-02-16T12:49:14;9.60;;;3.37;;
71777;SDS011;59609;52.430;4.668;2024-02-16T12:51:39;17.47;;;3.87;;
71777;SDS011;59609;52.430;4.668;2024-02-16T12:54:04;9.17;;;2.80;;
71777;SDS011;59609;52.430;4.668;2024-02-16T12:56:30;6.68;;;3.13;;
71777;SDS011;59609;52.430;4.668;2024-02-16T12:58:55;9.75;;;3.53;;
71777;SDS011;59609;52.430;4.668;2024-02-16T13:01:21;8.07;;;2.67;;
71777;SDS011;59609;52.430;4.668;2024-02-16T13:03:47;6.03;;;2.95;;
71777;SDS011;59609;52.430;4.668;2024-02-16T13:06:12;11.60;;;2.70;;
71777;SDS011;59609;52.430;4.668;2024-02-16T13:08:38;6.60;;;2.70;;
71777;SDS011;59609;52.430;4.668;2024-02-16T13:11:03;7.57;;;2.50;;
71777;SDS011;59609;52.430;4.668;2024-02-16T13:13:28;8.07;;;3.25;;
71777;SDS011;59609;52.430;4.668;2024-02-16T13:15:54;7.40;;;3.83;;
71777;SDS011;59609;52.430;4.668;2024-02-16T13:18:21;9.27;;;3.72;;
71777;SDS011;59609;52.430;4.668;2024-02-16T13:20:46;7.87;;;3.97;;
71777;SDS011;59609;52.430;4.668;2024-02-16T13:23:12;8.65;;;4.18;;
71777;SDS011;59609;52.430;4.668;2024-02-16T13:25:37;8.10;;;4.00;;
71777;SDS011;59609;52.430;4.668;2024-02-16T13:28:02;6.67;;;4.50;;
71777;SDS011;59609;52.430;4.668;2024-02-16T13:30:28;12.75;;;4.25;;
71777;SDS011;59609;52.430;4.668;2024-02-16T13:32:53;10.05;;;4.10;;
71777;SDS011;59609;52.430;4.668;2024-02-16T13:35:19;10.15;;;4.78;;
71777;SDS011;59609;52.430;4.668;2024-02-16T13:37:44;7.47;;;4.50;;
71777;SDS011;59609;52.430;4.668;2024-02-16T13:40:09;12.60;;;4.85;;
71777;SDS011;59609;52.430;4.668;2024-02-16T13:42:40;9.95;;;4.57;;
71777;SDS011;59609;52.430;4.668;2024-02-16T13:45:09;12.90;;;5.35;;
71777;SDS011;59609;52.430;4.668;2024-02-16T13:47:37;17.00;;;4.93;;
71777;SDS011;59609;52.430;4.668;2024-02-16T13:50:08;9.77;;;4.53;;
71777;SDS011;59609;52.430;4.668;2024-02-16T13:52:33;8.88;;;4.65;;
71777;SDS011;59609;52.430;4.668;2024-02-16T13:54:59;9.70;;;4.80;;
71777;SDS011;59609;52.430;4.668;2024-02-16T13:57:24;9.80;;;5.05;;
71777;SDS011;59609;52.430;4.668;2024-02-16T13:59:49;9.77;;;4.38;;
71777;SDS011;59609;52.430;4.668;2024-02-16T14:02:15;9.55;;;5.10;;
71777;SDS011;59609;52.430;4.668;2024-02-16T14:04:40;10.02;;;4.65;;
71777;SDS011;59609;52.430;4.668;2024-02-16T14:07:06;10.88;;;4.78;;
71777;SDS011;59609;52.430;4.668;2024-02-16T14:09:31;13.20;;;5.03;;
71777;SDS011;59609;52.430;4.668;2024-02-16T14:11:57;12.33;;;4.90;;
71777;SDS011;59609;52.430;4.668;2024-02-16T14:14:24;10.00;;;5.35;;
71777;SDS011;59609;52.430;4.668;2024-02-16T14:16:49;8.93;;;4.45;;
71777;SDS011;59609;52.430;4.668;2024-02-16T14:19:14;10.33;;;4.40;;
71777;SDS011;59609;52.430;4.668;2024-02-16T14:21:40;8.53;;;4.73;;
71777;SDS011;59609;52.430;4.668;2024-02-16T14:24:05;9.32;;;4.00;;
71777;SDS011;59609;52.430;4.668;2024-02-16T14:26:30;9.07;;;4.40;;
71777;SDS011;59609;52.430;4.668;2024-02-16T14:28:56;8.07;;;4.40;;
71777;SDS011;59609;52.430;4.668;2024-02-16T14:31:21;10.20;;;4.35;;
71777;SDS011;59609;52.430;4.668;2024-02-16T14:33:47;10.63;;;4.25;;
71777;SDS011;59609;52.430;4.668;2024-02-16T14:36:13;8.57;;;4.30;;
71777;SDS011;59609;52.430;4.668;2024-02-16T14:38:38;6.43;;;3.92;;
71777;SDS011;59609;52.430;4.668;2024-02-16T14:41:03;11.27;;;4.50;;